Time;durP1;ratioP1;P1;durP2;ratioP2;P2;SDS_P1;SDS_P2;PMS_P1;PMS_P2;Temp;Humidity;BMP_temperature;BMP_pressure;BME280_temperature;BME280_humidity;BME280_pressure;Samples;Min_cycle;Max_cycle;Signal;HPM_P1;HPM_P2
2022/02/12 00:02:20;;;;;;;12.70;4.00;;;0.00;99.90;;;;;;5121447;27;20405;-81
2022/02/12 00:04:45;;;;;;;20.98;4.00;;;0.00;99.90;;;;;;5113351;27;20044;-79
2022/02/12 00:07:11;;;;;;;20.90;4.40;;;-0.10;99.90;;;;;;5109327;27;20039;-81
2022/02/12 00:09:37;;;;;;;14.27;4.43;;;-0.10;99.90;;;;;;5117822;27;20044;-80
2022/02/12 00:12:03;;;;;;;16.13;4.10;;;-0.10;99.90;;;;;;5095873;27;20039;-79
2022/02/12 00:14:30;;;;;;;20.27;4.32;;;-0.10;99.90;;;;;;5107656;27;20043;-81
2022/02/12 00:16:55;;;;;;;19.67;3.85;;;-0.20;99.90;;;;;;5107656;27;20055;-81
2022/02/12 00:19:21;;;;;;;19.70;3.92;;;-0.20;99.90;;;;;;5112838;27;20084;-80
2022/02/12 00:21:47;;;;;;;9.13;3.70;;;-0.20;99.90;;;;;;5091658;27;20040;-80
2022/02/12 00:24:12;;;;;;;21.52;4.53;;;-0.20;99.90;;;;;;5111792;27;20085;-80
2022/02/12 00:26:38;;;;;;;12.55;3.63;;;-0.30;99.90;;;;;;5115752;27;20455;-80
2022/02/12 00:29:04;;;;;;;11.32;3.55;;;-0.20;99.90;;;;;;5107734;27;20046;-82
2022/02/12 00:31:29;;;;;;;16.90;3.80;;;-0.30;99.90;;;;;;5110710;27;20051;-83
2022/02/12 00:33:55;;;;;;;18.38;3.80;;;-0.30;99.90;;;;;;5104106;27;20404;-80
2022/02/12 00:36:21;;;;;;;14.10;3.95;;;-0.30;99.90;;;;;;5093288;27;20395;-80
2022/02/12 00:38:46;;;;;;;16.40;3.80;;;-0.30;99.90;;;;;;5108718;27;20036;-80
2022/02/12 00:41:12;;;;;;;21.80;3.90;;;-0.40;99.90;;;;;;5095340;27;20048;-80
2022/02/12 00:43:38;;;;;;;16.02;3.90;;;-0.40;99.90;;;;;;5110953;27;20131;-81
2022/02/12 00:46:04;;;;;;;14.23;3.83;;;-0.40;99.90;;;;;;5110290;27;20044;-80
2022/02/12 00:48:32;;;;;;;15.95;3.95;;;-0.40;99.90;;;;;;5117737;27;20137;-80
2022/02/12 00:50:59;;;;;;;13.25;3.83;;;-0.50;99.90;;;;;;5111386;27;20042;-79
2022/02/12 00:53:29;;;;;;;17.08;3.67;;;-0.50;99.90;;;;;;5093111;28;20364;-81
2022/02/12 00:55:55;;;;;;;19.83;3.83;;;-0.50;99.90;;;;;;5112130;27;20043;-81
2022/02/12 00:58:21;;;;;;;33.90;3.95;;;-0.50;99.90;;;;;;5094749;27;20039;-83
2022/02/12 01:00:47;;;;;;;18.00;3.75;;;-0.50;99.90;;;;;;5097346;27;20042;-81
2022/02/12 01:03:13;;;;;;;16.15;3.92;;;-0.50;99.90;;;;;;5108414;27;20031;-79
2022/02/12 01:09:20;;;;;;;13.80;3.97;;;-0.50;99.90;;;;;;5115808;28;20080;-83
2022/02/12 01:11:46;;;;;;;17.20;3.42;;;-0.50;99.90;;;;;;5113090;28;20035;-81
2022/02/12 01:14:12;;;;;;;21.38;3.25;;;-0.40;99.90;;;;;;5095787;28;20120;-80
2022/02/12 01:16:39;;;;;;;21.73;4.05;;;-0.50;99.90;;;;;;5108470;28;20067;-84
2022/02/12 01:19:04;;;;;;;13.32;3.60;;;-0.40;99.90;;;;;;5093485;28;20043;-82
2022/02/12 01:21:30;;;;;;;17.83;3.58;;;-0.40;99.90;;;;;;5117142;28;20039;-78
2022/02/12 01:23:56;;;;;;;18.15;3.63;;;-0.50;99.90;;;;;;5098577;28;20041;-82
2022/02/12 01:26:21;;;;;;;16.00;3.90;;;-0.50;99.90;;;;;;5116086;28;20167;-80
2022/02/12 01:28:47;;;;;;;20.10;3.58;;;-0.50;99.90;;;;;;5111823;28;20093;-81
2022/02/12 01:31:13;;;;;;;20.38;3.38;;;-0.50;99.90;;;;;;5114254;28;20130;-80
2022/02/12 01:33:38;;;;;;;22.80;3.53;;;-0.50;99.90;;;;;;5097252;28;20159;-80
2022/02/12 01:36:04;;;;;;;19.15;3.38;;;-0.60;99.90;;;;;;5118578;28;20043;-79
2022/02/12 01:38:30;;;;;;;16.95;2.90;;;-0.60;99.90;;;;;;5108043;28;20043;-81
2022/02/12 01:40:56;;;;;;;16.70;3.42;;;-0.60;99.90;;;;;;5111839;28;20061;-81
2022/02/12 01:43:22;;;;;;;23.25;3.15;;;-0.60;99.90;;;;;;5108221;28;20036;-79
2022/02/12 01:45:48;;;;;;;23.73;3.28;;;-0.50;99.90;;;;;;5107703;28;20043;-81
2022/02/12 01:48:14;;;;;;;18.73;3.28;;;-0.60;99.90;;;;;;5108287;28;20187;-81
2022/02/12 01:50:40;;;;;;;14.43;3.55;;;-0.50;99.90;;;;;;5093674;28;20579;-80
2022/02/12 01:53:06;;;;;;;15.52;3.38;;;-0.60;99.90;;;;;;5107886;28;20469;-80
2022/02/12 01:55:31;;;;;;;13.20;3.22;;;-0.60;99.90;;;;;;5124995;27;20081;-83
2022/02/12 01:57:57;;;;;;;14.73;3.13;;;-0.60;99.90;;;;;;5112976;27;20047;-79
2022/02/12 02:00:24;;;;;;;11.43;2.80;;;-0.50;99.90;;;;;;5111698;27;20411;-81
2022/02/12 02:02:50;;;;;;;17.17;3.67;;;-0.50;99.90;;;;;;5114178;27;20034;-81
2022/02/12 02:05:17;;;;;;;17.15;3.42;;;-0.60;99.90;;;;;;5112643;27;20031;-81
2022/02/12 02:07:44;;;;;;;14.82;3.50;;;-0.60;99.90;;;;;;5094224;27;20057;-82
2022/02/12 02:10:11;;;;;;;22.23;3.55;;;-0.60;99.90;;;;;;5115809;27;20039;-80
2022/02/12 02:12:37;;;;;;;21.90;4.30;;;-0.60;99.90;;;;;;5110946;27;20057;-79
2022/02/12 02:15:04;;;;;;;28.10;4.30;;;-0.60;99.90;;;;;;5111053;27;20043;-83
2022/02/12 02:17:29;;;;;;;20.27;3.58;;;-0.60;99.90;;;;;;5097397;27;20397;-80
2022/02/12 02:19:55;;;;;;;15.18;3.72;;;-0.60;99.90;;;;;;5129856;27;20130;-81
2022/02/12 02:22:31;;;;;;;19.15;3.75;;;-0.60;99.90;;;;;;5114280;27;20043;-82
2022/02/12 02:24:57;;;;;;;14.13;3.80;;;-0.60;99.90;;;;;;5115236;27;20122;-78
2022/02/12 02:27:28;;;;;;;20.23;3.75;;;-0.60;99.90;;;;;;5113253;27;20423;-80
2022/02/12 02:29:54;;;;;;;23.75;4.00;;;-0.60;99.90;;;;;;5093162;27;20070;-81
2022/02/12 02:32:20;;;;;;;19.45;4.15;;;-0.60;99.90;;;;;;5097276;27;20047;-78
2022/02/12 02:34:49;;;;;;;24.55;4.07;;;-0.20;99.90;;;;;;5114069;27;20064;-80
2022/02/12 02:37:14;;;;;;;23.80;4.72;;;-0.70;99.90;;;;;;5097618;27;20073;-80
2022/02/12 02:39:41;;;;;;;14.02;3.65;;;-0.70;99.90;;;;;;5098889;27;20081;-82
2022/02/12 02:42:06;;;;;;;20.73;4.63;;;-0.70;99.90;;;;;;5113551;27;20127;-79
2022/02/12 02:44:32;;;;;;;18.27;4.22;;;-0.70;99.90;;;;;;5117696;27;20185;-82
2022/02/12 02:46:58;;;;;;;22.67;4.85;;;-0.70;99.90;;;;;;5101771;27;20469;-83
2022/02/12 02:49:23;;;;;;;23.25;5.05;;;-0.70;99.90;;;;;;5116106;27;20051;-82
2022/02/12 02:57:17;;;;;;;26.30;5.53;;;-0.70;99.90;;;;;;5111519;27;20046;-81
2022/02/12 02:59:43;;;;;;;22.73;6.20;;;-0.70;99.90;;;;;;5112107;27;20035;-82
2022/02/12 03:02:08;;;;;;;17.77;5.05;;;-0.70;99.90;;;;;;5117826;27;20415;-83
2022/02/12 03:04:34;;;;;;;18.17;5.53;;;-0.70;99.90;;;;;;5119519;27;20413;-81
2022/02/12 03:06:59;;;;;;;22.33;5.60;;;-0.70;99.90;;;;;;5104837;27;20044;-79
2022/02/12 03:09:26;;;;;;;15.40;5.43;;;-0.60;99.90;;;;;;5112650;27;20130;-79
2022/02/12 03:11:52;;;;;;;32.17;6.00;;;-0.60;99.90;;;;;;5112283;27;20043;-81
2022/02/12 03:14:18;;;;;;;24.60;5.45;;;-0.60;99.90;;;;;;5095772;27;20035;-82
2022/02/12 03:16:44;;;;;;;20.45;6.45;;;-0.60;99.90;;;;;;5111035;27;20059;-80
2022/02/12 03:19:09;;;;;;;19.95;6.68;;;-0.70;99.90;;;;;;5112268;27;20036;-79
2022/02/12 03:21:35;;;;;;;21.88;6.65;;;-0.60;99.90;;;;;;5112687;27;20044;-80
2022/02/12 03:24:01;;;;;;;18.48;5.63;;;-0.60;99.90;;;;;;5109476;27;20039;-80
2022/02/12 03:26:26;;;;;;;25.33;5.88;;;-0.60;99.90;;;;;;5096073;27;20048;-78
2022/02/12 03:28:52;;;;;;;23.33;6.03;;;-0.60;99.90;;;;;;5093495;27;20089;-80
2022/02/12 03:31:17;;;;;;;18.95;5.18;;;-0.60;99.90;;;;;;5093947;27;20031;-84
2022/02/12 03:33:43;;;;;;;30.77;5.78;;;-0.60;99.90;;;;;;5111090;27;20042;-80
2022/02/12 03:36:09;;;;;;;16.38;5.63;;;-0.60;99.90;;;;;;5113900;27;20512;-81
2022/02/12 03:38:38;;;;;;;17.38;5.40;;;-0.60;99.90;;;;;;5111877;27;20051;-81
2022/02/12 03:41:07;;;;;;;21.20;5.82;;;-0.60;99.90;;;;;;5113451;27;20063;-80
2022/02/12 03:43:35;;;;;;;24.27;5.78;;;-0.70;99.90;;;;;;5113313;27;20088;-81
2022/02/12 03:46:02;;;;;;;26.48;5.85;;;-0.70;99.90;;;;;;5100232;27;20140;-81
2022/02/12 03:48:28;;;;;;;24.73;5.00;;;-0.60;99.90;;;;;;5101328;28;20122;-81
2022/02/12 03:50:54;;;;;;;32.17;5.43;;;-0.70;99.90;;;;;;5112533;27;20035;-83
2022/02/12 03:53:20;;;;;;;25.50;4.60;;;-0.60;99.90;;;;;;5118643;27;20053;-82
2022/02/12 03:55:47;;;;;;;22.92;5.22;;;-0.70;99.90;;;;;;5115030;27;20039;-80
2022/02/12 03:58:15;;;;;;;15.93;4.60;;;-0.70;99.90;;;;;;5093942;27;20065;-81
2022/02/12 04:00:43;;;;;;;11.45;4.00;;;-0.70;99.90;;;;;;5108121;27;20040;-83
2022/02/12 04:03:09;;;;;;;14.85;4.40;;;-0.70;99.90;;;;;;5112970;27;20100;-81
2022/02/12 04:05:36;;;;;;;17.67;4.32;;;-0.70;99.90;;;;;;5112625;27;20495;-79
2022/02/12 04:08:02;;;;;;;18.55;4.60;;;-0.70;99.90;;;;;;5104367;27;20085;-81
2022/02/12 04:10:28;;;;;;;19.40;4.05;;;-0.70;99.90;;;;;;5109986;27;20454;-82
2022/02/12 04:12:54;;;;;;;19.25;4.03;;;-0.70;99.90;;;;;;5123137;27;20112;-83
2022/02/12 04:15:22;;;;;;;21.17;4.45;;;-0.70;99.90;;;;;;5103883;28;20482;-82
2022/02/12 04:17:49;;;;;;;19.48;4.00;;;-0.80;99.90;;;;;;5101017;27;20047;-84
2022/02/12 04:20:18;;;;;;;18.98;3.60;;;-0.80;99.90;;;;;;5112968;27;20047;-79
2022/02/12 04:22:44;;;;;;;13.73;4.30;;;-0.70;99.90;;;;;;5111238;27;20035;-81
2022/02/12 04:25:16;;;;;;;15.40;3.50;;;-0.70;99.90;;;;;;5095590;28;20055;-80
2022/02/12 04:27:42;;;;;;;17.23;3.53;;;-0.70;99.90;;;;;;5108129;27;20047;-81
2022/02/12 04:30:10;;;;;;;22.55;4.10;;;-0.70;99.90;;;;;;5101956;27;20082;-79
2022/02/12 04:32:37;;;;;;;22.27;3.65;;;-0.80;99.90;;;;;;5106655;27;20074;-80
2022/02/12 04:35:04;;;;;;;16.45;3.60;;;-0.70;99.90;;;;;;5085711;28;20051;-80
2022/02/12 04:37:31;;;;;;;14.35;3.67;;;-0.70;99.90;;;;;;5097192;28;20071;-82
2022/02/12 04:39:58;;;;;;;21.55;4.25;;;-0.70;99.90;;;;;;5113831;27;20056;-80
2022/02/12 04:42:23;;;;;;;20.77;4.15;;;-0.70;99.90;;;;;;5108057;27;20528;-80
2022/02/12 04:44:50;;;;;;;18.55;3.85;;;-0.70;99.90;;;;;;5091877;27;20040;-82
2022/02/12 04:47:17;;;;;;;16.83;3.88;;;-0.70;99.90;;;;;;5092895;27;20031;-81
2022/02/12 04:49:43;;;;;;;18.15;4.03;;;-0.70;99.90;;;;;;5110196;27;20528;-80
2022/02/12 04:52:11;;;;;;;23.10;4.13;;;-0.80;99.90;;;;;;5108480;27;20046;-79
2022/02/12 04:54:37;;;;;;;14.10;3.38;;;-0.80;99.90;;;;;;5106777;27;20053;-81
2022/02/12 04:57:04;;;;;;;27.10;4.28;;;-0.80;99.90;;;;;;5111712;27;20061;-81
2022/02/12 04:59:31;;;;;;;17.45;3.75;;;-0.70;99.90;;;;;;5113263;27;20047;-80
2022/02/12 05:01:56;;;;;;;22.15;3.97;;;-0.80;99.90;;;;;;5107766;27;20117;-80
2022/02/12 05:04:25;;;;;;;16.50;4.22;;;-0.80;99.90;;;;;;5110427;27;20067;-82
2022/02/12 05:06:51;;;;;;;20.42;4.32;;;-0.80;99.90;;;;;;5092865;27;20043;-85
2022/02/12 05:09:17;;;;;;;19.45;3.90;;;-0.80;99.90;;;;;;5114901;27;20115;-84
2022/02/12 05:11:46;;;;;;;19.02;4.43;;;-0.80;99.90;;;;;;5111516;27;20035;-82
2022/02/12 05:14:13;;;;;;;16.60;3.70;;;-0.80;99.90;;;;;;5092242;28;20515;-78
2022/02/12 05:16:39;;;;;;;17.65;4.18;;;-0.80;99.90;;;;;;5094575;28;20066;-79
2022/02/12 05:19:05;;;;;;;24.13;4.47;;;-0.70;99.90;;;;;;5107260;28;20447;-79
2022/02/12 05:21:31;;;;;;;15.10;4.38;;;-0.80;99.90;;;;;;5109756;28;20036;-80
2022/02/12 05:23:57;;;;;;;25.13;4.78;;;-0.80;99.90;;;;;;5123483;28;20369;-82
2022/02/12 05:26:22;;;;;;;15.30;4.28;;;-0.80;99.90;;;;;;5092120;28;20544;-82
2022/02/12 05:28:48;;;;;;;19.92;4.50;;;-0.70;99.90;;;;;;5108648;27;20126;-82
2022/02/12 05:31:14;;;;;;;22.08;4.63;;;-0.70;99.90;;;;;;5095548;27;20058;-80
2022/02/12 05:33:40;;;;;;;20.17;5.22;;;-0.70;99.90;;;;;;5113091;27;20078;-79
2022/02/12 05:36:07;;;;;;;21.30;4.65;;;-0.70;99.90;;;;;;5115898;27;20070;-83
2022/02/12 05:38:33;;;;;;;19.27;4.72;;;-0.70;99.90;;;;;;5094364;27;20047;-80
2022/02/12 05:40:59;;;;;;;23.35;5.30;;;-0.80;99.90;;;;;;5115013;27;20130;-80
2022/02/12 05:43:24;;;;;;;27.30;5.78;;;-0.80;99.90;;;;;;5122607;27;20126;-81
2022/02/12 05:45:50;;;;;;;21.67;4.95;;;-0.70;99.90;;;;;;5118158;27;20039;-80
2022/02/12 05:48:19;;;;;;;18.90;5.15;;;-0.70;99.90;;;;;;5097035;27;20074;-79
2022/02/12 05:50:45;;;;;;;23.88;5.63;;;-0.70;99.90;;;;;;5116342;27;20043;-81
2022/02/12 05:53:11;;;;;;;22.83;5.13;;;-0.70;99.90;;;;;;5105994;27;20050;-79
2022/02/12 05:55:37;;;;;;;23.95;5.43;;;-0.80;99.90;;;;;;5102367;27;20039;-80
2022/02/12 05:58:03;;;;;;;16.65;5.25;;;-0.70;99.90;;;;;;5117286;27;20047;-81
2022/02/12 06:00:29;;;;;;;21.73;5.10;;;-0.70;99.90;;;;;;5102505;27;20520;-80
2022/02/12 06:02:55;;;;;;;24.83;5.70;;;-0.70;99.90;;;;;;5116535;27;20031;-81
2022/02/12 06:05:21;;;;;;;24.33;6.40;;;-0.70;99.90;;;;;;5118228;27;20043;-80
2022/02/12 06:07:46;;;;;;;19.42;5.03;;;-0.70;99.90;;;;;;5098992;28;20074;-80
2022/02/12 06:10:13;;;;;;;15.48;4.60;;;-0.70;99.90;;;;;;5112534;27;20035;-81
2022/02/12 06:12:40;;;;;;;18.92;5.35;;;-0.70;99.90;;;;;;5112866;27;20061;-81
2022/02/12 06:15:06;;;;;;;22.30;5.80;;;-0.70;99.90;;;;;;5115131;27;20378;-81
2022/02/12 06:17:32;;;;;;;22.55;5.20;;;-0.70;99.90;;;;;;5092943;27;20075;-82
2022/02/12 06:19:58;;;;;;;22.05;5.53;;;-0.70;99.90;;;;;;5096985;27;20082;-81
2022/02/12 06:22:27;;;;;;;18.75;5.35;;;-0.70;99.90;;;;;;5099498;27;20138;-82
2022/02/12 06:24:53;;;;;;;22.63;5.90;;;-0.70;99.90;;;;;;5092343;28;20043;-82
2022/02/12 06:27:19;;;;;;;22.23;6.07;;;-0.70;99.90;;;;;;5119289;27;20047;-84
2022/02/12 06:29:45;;;;;;;19.90;5.25;;;-0.70;99.90;;;;;;5116296;27;20132;-81
2022/02/12 06:32:10;;;;;;;23.40;5.78;;;-0.70;99.90;;;;;;5123091;27;20919;-81
2022/02/12 06:34:37;;;;;;;26.13;5.57;;;-0.60;99.90;;;;;;5093817;27;20050;-83
2022/02/12 06:37:03;;;;;;;18.27;6.18;;;-0.70;99.90;;;;;;5113924;27;20027;-82
2022/02/12 06:39:28;;;;;;;24.90;6.00;;;-0.60;99.90;;;;;;5114063;27;20043;-82
2022/02/12 06:42:37;;;;;;;22.38;5.82;;;-0.60;99.90;;;;;;5112307;27;20478;-83
2022/02/12 06:45:03;;;;;;;26.02;5.57;;;-0.60;99.90;;;;;;5073425;28;20134;-81
2022/02/12 06:48:08;;;;;;;27.73;6.15;;;0.60;99.90;;;;;;5076812;28;20061;-83
2022/02/12 06:50:34;;;;;;;26.02;5.28;;;0.40;99.90;;;;;;5057416;28;20132;-83
2022/02/12 06:53:00;;;;;;;25.38;5.38;;;1.20;99.90;;;;;;5072351;28;20052;-86
2022/02/12 06:55:25;;;;;;;20.00;5.25;;;0.00;99.90;;;;;;5057955;28;20514;-86
2022/02/12 06:57:59;;;;;;;23.48;6.18;;;-0.10;99.90;;;;;;5085480;28;20039;-84
2022/02/12 07:00:37;;;;;;;22.43;4.90;;;0.90;99.90;;;;;;5064138;28;20090;-82
2022/02/12 07:03:26;;;;;;;24.42;5.90;;;0.20;99.90;;;;;;5090112;28;20661;-81
2022/02/12 07:05:51;;;;;;;19.38;5.65;;;0.70;99.90;;;;;;5063866;28;20131;-81
2022/02/12 07:08:19;;;;;;;17.90;5.82;;;0.60;99.90;;;;;;5057158;28;20126;-82
2022/02/12 07:10:51;;;;;;;21.00;6.25;;;0.50;99.90;;;;;;5071556;28;20048;-80
2022/02/12 07:13:20;;;;;;;24.35;6.28;;;-0.60;99.90;;;;;;5059774;28;20447;-83
2022/02/12 07:15:46;;;;;;;20.63;6.13;;;-0.50;99.90;;;;;;5068718;27;20188;-84
2022/02/12 07:18:12;;;;;;;27.92;6.50;;;-0.30;99.90;;;;;;5117610;27;20433;-84
2022/02/12 07:20:38;;;;;;;19.60;6.07;;;-0.30;99.90;;;;;;5105002;27;20042;-81
2022/02/12 07:23:04;;;;;;;29.55;6.38;;;-0.20;99.90;;;;;;5098051;27;20056;-83
2022/02/12 07:25:29;;;;;;;22.35;6.40;;;0.10;99.90;;;;;;5123581;27;20178;-83
2022/02/12 07:27:58;;;;;;;15.00;5.55;;;-0.20;99.90;;;;;;5123465;27;20036;-79
2022/02/12 07:30:24;;;;;;;18.85;6.53;;;0.10;99.90;;;;;;5114730;27;20035;-83
2022/02/12 07:32:50;;;;;;;19.63;6.70;;;-0.20;99.90;;;;;;5098302;28;20516;-82
2022/02/12 07:35:17;;;;;;;18.58;5.85;;;-0.10;99.90;;;;;;5107893;28;20048;-79
2022/02/12 07:37:45;;;;;;;18.70;6.95;;;-0.20;99.90;;;;;;5110863;27;20047;-83
2022/02/12 07:40:15;;;;;;;19.90;6.72;;;-0.10;99.90;;;;;;5096836;28;20043;-81
2022/02/12 07:42:41;;;;;;;21.15;6.38;;;-0.10;99.90;;;;;;5117572;27;20039;-82
2022/02/12 07:45:07;;;;;;;25.08;6.65;;;-0.10;99.90;;;;;;5127808;27;20062;-82
2022/02/12 07:47:35;;;;;;;26.75;7.15;;;0.00;99.90;;;;;;5083130;27;20045;-78
2022/02/12 07:50:03;;;;;;;21.50;7.07;;;0.10;99.90;;;;;;5103920;27;20142;-82
2022/02/12 07:52:29;;;;;;;29.58;6.97;;;0.00;99.90;;;;;;5093800;27;20043;-84
2022/02/12 07:54:55;;;;;;;25.67;6.97;;;0.00;99.90;;;;;;5109803;27;20028;-84
2022/02/12 07:57:22;;;;;;;26.50;7.47;;;0.10;99.90;;;;;;5112108;27;20054;-80
2022/02/12 07:59:49;;;;;;;22.90;7.10;;;0.20;99.90;;;;;;5108102;27;20046;-82
2022/02/12 08:02:15;;;;;;;26.70;7.57;;;0.20;99.90;;;;;;5121589;27;20055;-82
2022/02/12 08:04:41;;;;;;;21.08;6.90;;;0.20;99.90;;;;;;5120513;27;20058;-86
2022/02/12 08:09:51;;;;;;;21.27;7.40;;;0.30;99.90;;;;;;5114244;27;20130;-83
2022/02/12 08:12:18;;;;;;;26.08;8.32;;;0.30;99.90;;;;;;5102622;27;20113;-84
2022/02/12 08:14:53;;;;;;;19.55;8.15;;;0.60;99.90;;;;;;5109371;27;20040;-85
2022/02/12 08:17:19;;;;;;;;;;;0.60;99.90;;;;;;5099524;27;20051;-83
2022/02/12 08:19:47;;;;;;;27.40;8.02;;;0.50;99.90;;;;;;5105838;27;19920;-84
2022/02/12 08:22:14;;;;;;;21.60;7.90;;;0.50;99.90;;;;;;5098106;27;20100;-83
2022/02/12 08:24:40;;;;;;;22.40;7.70;;;0.60;99.90;;;;;;5114218;27;20067;-82
2022/02/12 08:27:10;;;;;;;18.60;7.47;;;0.60;99.90;;;;;;5101855;27;20039;-82
2022/02/12 08:29:40;;;;;;;21.65;8.00;;;0.70;99.90;;;;;;5126195;27;20039;-83
2022/02/12 08:32:08;;;;;;;21.77;8.40;;;0.70;99.90;;;;;;5117028;27;20538;-82
2022/02/12 08:34:35;;;;;;;22.00;7.88;;;0.80;99.90;;;;;;5116957;27;20541;-79
2022/02/12 08:37:03;;;;;;;21.73;7.03;;;0.80;99.90;;;;;;5112570;27;20047;-80
2022/02/12 08:39:30;;;;;;;23.33;7.35;;;0.80;99.90;;;;;;5093790;27;20051;-81
2022/02/12 08:41:56;;;;;;;18.35;7.20;;;0.90;99.90;;;;;;5114573;27;20356;-85
2022/02/12 08:44:21;;;;;;;31.00;8.30;;;1.00;99.90;;;;;;5119375;27;20039;-82
2022/02/12 08:46:47;;;;;;;23.48;7.30;;;1.00;99.90;;;;;;5119527;27;20448;-84
2022/02/12 08:49:14;;;;;;;31.15;7.65;;;1.10;99.90;;;;;;5099527;27;20114;-85
2022/02/12 08:51:40;;;;;;;24.15;7.50;;;2.20;99.90;;;;;;5118078;27;20853;-84
2022/02/12 08:54:11;;;;;;;17.15;6.93;;;2.10;99.90;;;;;;5114658;27;20051;-84
2022/02/12 08:56:39;;;;;;;20.67;7.35;;;1.30;99.90;;;;;;5101498;27;20336;-84
2022/02/12 08:59:05;;;;;;;20.17;6.90;;;1.30;99.90;;;;;;5124520;27;20039;-83
2022/02/12 09:01:33;;;;;;;22.20;6.93;;;1.40;99.90;;;;;;5099382;28;20042;-83
2022/02/12 09:03:59;;;;;;;21.50;7.07;;;1.40;99.90;;;;;;5118667;27;20031;-82
2022/02/12 09:06:25;;;;;;;21.33;6.53;;;1.50;99.90;;;;;;5110004;27;20178;-84
2022/02/12 09:08:51;;;;;;;18.45;6.68;;;1.60;99.90;;;;;;5124210;27;20043;-83
2022/02/12 09:11:21;;;;;;;33.40;6.72;;;2.00;99.90;;;;;;5131929;27;20047;-84
2022/02/12 09:13:49;;;;;;;19.65;6.43;;;2.10;99.90;;;;;;5120652;28;20034;-83
2022/02/12 09:16:40;;;;;;;16.40;6.03;;;1.70;99.90;;;;;;5099019;27;20131;-81
2022/02/12 09:19:08;;;;;;;17.77;6.32;;;1.80;99.90;;;;;;5122741;28;20370;-81
2022/02/12 09:21:34;;;;;;;20.67;6.20;;;2.00;99.90;;;;;;5096986;28;20070;-83
2022/02/12 09:24:00;;;;;;;28.98;6.50;;;1.90;99.90;;;;;;5102493;28;20785;-86
2022/02/12 09:26:33;;;;;;;20.27;6.38;;;2.90;99.90;;;;;;5117824;28;20040;-84
2022/02/12 09:29:00;;;;;;;17.17;5.63;;;2.60;99.90;;;;;;5093212;28;20371;-83
2022/02/12 09:31:26;;;;;;;19.27;6.18;;;3.00;99.90;;;;;;5106623;28;20131;-84
2022/02/12 09:33:53;;;;;;;22.88;6.32;;;3.00;99.90;;;;;;5131191;28;20073;-83
2022/02/12 09:36:19;;;;;;;17.25;6.40;;;2.60;99.90;;;;;;5100655;28;20096;-82
2022/02/12 09:38:44;;;;;;;20.52;6.30;;;2.70;99.90;;;;;;5124273;28;20027;-84
2022/02/12 09:41:13;;;;;;;20.33;6.43;;;2.80;99.90;;;;;;5097007;28;20047;-79
2022/02/12 09:43:40;;;;;;;25.42;6.28;;;3.30;99.90;;;;;;5092639;28;20450;-81
2022/02/12 09:46:31;;;;;;;24.17;6.20;;;2.40;99.90;;;;;;5081496;28;20044;-82
2022/02/12 09:48:58;;;;;;;18.30;6.43;;;2.50;99.90;;;;;;5091672;28;20039;-85
2022/02/12 09:51:25;;;;;;;21.30;6.43;;;2.70;99.90;;;;;;5093135;28;20066;-83
2022/02/12 09:53:51;;;;;;;16.88;6.05;;;2.70;99.90;;;;;;5125822;28;20061;-85
2022/02/12 09:56:18;;;;;;;23.02;7.20;;;3.20;99.90;;;;;;5104291;28;20124;-82
2022/02/12 09:58:44;;;;;;;23.83;6.75;;;2.80;99.90;;;;;;5097013;28;20074;-82
2022/02/12 10:01:10;;;;;;;17.27;6.45;;;2.90;99.90;;;;;;5117899;28;20039;-78
2022/02/12 10:03:38;;;;;;;20.55;5.85;;;3.00;99.90;;;;;;5082687;28;20077;-82
2022/02/12 10:06:04;;;;;;;17.65;5.60;;;3.20;99.90;;;;;;5102298;28;20051;-83
2022/02/12 10:08:30;;;;;;;21.83;6.28;;;3.60;99.90;;;;;;5095734;28;20035;-79
2022/02/12 10:10:55;;;;;;;19.65;6.00;;;3.60;99.90;;;;;;5079952;28;20040;-82
2022/02/12 10:13:28;;;;;;;19.50;6.45;;;3.60;99.90;;;;;;5079675;28;20453;-84
2022/02/12 10:16:03;;;;;;;21.90;6.30;;;3.70;99.90;;;;;;5098351;28;20134;-81
2022/02/12 10:18:46;;;;;;;25.52;6.20;;;3.70;99.90;;;;;;5086937;27;20052;-85
2022/02/12 10:21:31;;;;;;;18.35;5.55;;;3.80;99.90;;;;;;5086656;27;20100;-84
2022/02/12 10:24:11;;;;;;;17.92;5.38;;;3.70;99.90;;;;;;5105030;27;20123;-87
2022/02/12 10:27:16;;;;;;;18.30;5.40;;;3.70;99.90;;;;;;5087994;27;20130;-86
2022/02/12 10:29:45;;;;;;;16.75;5.30;;;3.90;99.90;;;;;;5077001;27;20089;-82
2022/02/12 10:32:19;;;;;;;22.90;5.53;;;4.80;99.90;;;;;;5080168;28;20047;-79
2022/02/12 10:34:46;;;;;;;19.23;5.70;;;5.00;99.90;;;;;;5079655;28;20047;-81
2022/02/12 10:37:13;;;;;;;16.20;4.95;;;4.30;99.90;;;;;;5081426;28;20078;-81
2022/02/12 10:39:49;;;;;;;13.00;4.70;;;4.30;99.90;;;;;;5077197;28;20501;-80
2022/02/12 10:42:18;;;;;;;14.32;4.28;;;4.40;99.90;;;;;;5094056;28;20140;-80
2022/02/12 10:44:47;;;;;;;22.15;4.88;;;4.50;99.90;;;;;;5078893;28;20431;-81
2022/02/12 10:47:13;;;;;;;16.15;4.28;;;4.60;99.90;;;;;;5095587;28;20051;-80
2022/02/12 10:49:43;;;;;;;19.73;4.75;;;4.60;99.90;;;;;;5094820;28;20128;-79
2022/02/12 10:52:10;;;;;;;15.50;4.68;;;4.60;99.90;;;;;;5093024;28;20051;-80
2022/02/12 10:54:47;;;;;;;20.27;4.10;;;4.80;99.90;;;;;;5101971;28;20051;-79
2022/02/12 10:57:14;;;;;;;13.75;4.10;;;4.90;99.90;;;;;;5084623;28;20055;-79
2022/02/12 10:59:44;;;;;;;13.77;4.55;;;4.90;99.90;;;;;;5074509;28;20143;-82
2022/02/12 11:02:14;;;;;;;15.82;4.35;;;5.00;99.90;;;;;;5095278;28;20047;-81
2022/02/12 11:04:40;;;;;;;14.75;4.18;;;5.00;99.90;;;;;;5097386;28;20513;-79
2022/02/12 11:07:13;;;;;;;15.30;4.30;;;5.10;99.90;;;;;;5096167;28;20147;-82
2022/02/12 11:09:44;;;;;;;15.57;4.38;;;5.20;99.90;;;;;;5105746;27;20035;-79
2022/02/12 11:12:11;;;;;;;16.08;4.38;;;5.20;99.90;;;;;;5114162;27;20039;-81
2022/02/12 11:14:37;;;;;;;15.63;4.45;;;5.30;99.90;;;;;;5112433;27;20047;-84
2022/02/12 11:17:09;;;;;;;17.35;4.60;;;5.50;99.90;;;;;;5096311;28;20052;-84
2022/02/12 11:19:36;;;;;;;14.88;4.20;;;5.60;99.90;;;;;;5107091;27;20039;-84
2022/02/12 11:22:03;;;;;;;16.38;4.38;;;6.20;99.90;;;;;;5092448;27;20043;-83
2022/02/12 11:24:38;;;;;;;16.52;4.40;;;5.80;99.90;;;;;;5123998;27;20134;-81
2022/02/12 11:27:23;;;;;;;17.15;4.07;;;6.00;99.90;;;;;;5133298;27;20096;-83
2022/02/12 11:29:51;;;;;;;12.15;3.85;;;6.20;99.90;;;;;;5115417;27;20473;-80
2022/02/12 11:32:22;;;;;;;19.50;4.25;;;6.20;99.90;;;;;;5118747;27;20041;-79
2022/02/12 11:35:08;;;;;;;13.68;3.80;;;6.20;99.90;;;;;;5125596;27;20066;-79
2022/02/12 11:37:38;;;;;;;17.27;4.55;;;6.30;99.90;;;;;;5119725;27;20226;-79
2022/02/12 11:40:13;;;;;;;12.82;3.90;;;6.20;99.90;;;;;;5118958;27;20134;-79
2022/02/12 11:42:59;;;;;;;14.23;3.67;;;6.10;99.90;;;;;;5119690;27;20050;-79
2022/02/12 11:45:34;;;;;;;16.80;4.40;;;6.00;99.90;;;;;;5115113;27;20118;-78
2022/02/12 11:48:19;;;;;;;;;;;6.10;99.90;;;;;;5114834;27;20521;-82
2022/02/12 11:50:47;;;;;;;16.45;4.22;;;6.10;99.90;;;;;;5107393;27;19954;-81
2022/02/12 11:53:38;;;;;;;17.00;3.90;;;6.40;99.90;;;;;;5126870;27;20374;-79
2022/02/12 11:56:13;;;;;;;17.92;3.65;;;6.20;99.90;;;;;;5103924;28;20035;-79
2022/02/12 11:58:42;;;;;;;16.40;4.03;;;6.30;99.90;;;;;;5120308;27;20035;-79
2022/02/12 12:01:27;;;;;;;15.00;4.72;;;6.20;99.90;;;;;;5117731;27;20067;-79
2022/02/12 12:04:11;;;;;;;17.50;5.40;;;6.20;99.90;;;;;;5122723;27;20055;-79
2022/02/12 12:06:57;;;;;;;19.60;4.30;;;6.20;99.90;;;;;;5123136;27;20039;-79
2022/02/12 12:09:23;;;;;;;13.75;3.90;;;6.30;99.90;;;;;;5091481;27;20043;-80
2022/02/12 12:12:08;;;;;;;16.75;4.28;;;6.30;99.90;;;;;;5103539;27;20191;-80
2022/02/12 12:14:34;;;;;;;12.07;3.88;;;6.40;99.90;;;;;;5123472;27;20057;-80
2022/02/12 12:17:02;;;;;;;13.10;3.97;;;6.40;99.90;;;;;;5115869;27;20056;-82
2022/02/12 12:19:29;;;;;;;12.98;4.47;;;6.40;99.90;;;;;;5097440;28;20047;-83
2022/02/12 12:21:56;;;;;;;15.77;4.68;;;6.40;99.90;;;;;;5122422;27;20054;-81
2022/02/12 12:24:22;;;;;;;17.45;4.45;;;6.70;99.90;;;;;;5085507;27;20039;-81
2022/02/12 12:26:49;;;;;;;16.63;4.18;;;6.60;99.90;;;;;;5098928;28;20543;-82
2022/02/12 12:32:14;;;;;;;14.23;4.15;;;6.60;99.90;;;;;;5122039;27;20044;-82
2022/02/12 12:34:54;;;;;;;19.25;4.43;;;6.80;99.90;;;;;;5123308;27;20044;-82
2022/02/12 12:37:21;;;;;;;15.63;4.25;;;6.90;99.90;;;;;;5124667;27;20050;-80
2022/02/12 12:39:48;;;;;;;12.73;4.00;;;6.80;99.90;;;;;;5133527;27;20134;-82
2022/02/12 12:42:21;;;;;;;12.02;4.03;;;7.10;99.90;;;;;;5111063;27;20035;-80
2022/02/12 12:45:19;;;;;;;14.35;4.55;;;7.00;99.90;;;;;;5098827;27;20055;-82
2022/02/12 12:47:49;;;;;;;20.33;4.57;;;7.10;99.90;;;;;;5013603;28;20420;-82
2022/02/12 12:50:15;;;;;;;14.65;3.97;;;7.10;99.90;;;;;;5013305;28;20060;-81
2022/02/12 12:52:41;;;;;;;15.50;4.10;;;7.10;99.90;;;;;;5014214;28;20037;-81
2022/02/12 12:55:11;;;;;;;15.98;4.15;;;7.20;99.90;;;;;;5031065;28;20053;-82
2022/02/12 12:57:43;;;;;;;21.55;4.88;;;7.30;99.90;;;;;;5033254;28;20076;-81
2022/02/12 13:00:16;;;;;;;15.55;4.25;;;7.20;99.90;;;;;;5033112;28;20049;-81
2022/02/12 13:02:56;;;;;;;14.30;4.30;;;7.30;99.90;;;;;;5032266;28;20088;-80
2022/02/12 13:05:28;;;;;;;16.27;4.43;;;7.30;99.90;;;;;;4996979;28;20060;-81